fecha-hora | temperatura | viento dirección-velocidad-rachas | humedad | presión

  • 08-07-2020 10:00:00 | 20.70°C | Sur-13.00 km/h - 29.00 km/h | 38.00% | 0.00 hPa
  • 08-07-2020 09:00:00 | 19.50°C | Sur-14.00 km/h - 34.00 km/h | 40.00% | 0.00 hPa
  • 08-07-2020 08:00:00 | 18.60°C | Sur-23.00 km/h - 36.00 km/h | 42.00% | 0.00 hPa
  • 08-07-2020 06:00:00 | 17.80°C | Sur-14.00 km/h - 23.00 km/h | 45.00% | 0.00 hPa
  • 08-07-2020 05:00:00 | 17.70°C | Sur-17.00 km/h - 22.00 km/h | 48.00% | 0.00 hPa
  • 08-07-2020 04:00:00 | 15.60°C | Sudoeste-12.00 km/h - 15.00 km/h | 52.00% | 0.00 hPa
  • 08-07-2020 03:00:00 | 14.90°C | Sudoeste-8.00 km/h - 12.00 km/h | 56.00% | 0.00 hPa
  • 08-07-2020 02:00:00 | 15.60°C | Sudoeste-10.00 km/h - 14.00 km/h | 55.00% | 0.00 hPa
  • 08-07-2020 01:00:00 | 15.70°C | Sudoeste-10.00 km/h - 13.00 km/h | 64.00% | 0.00 hPa
  • 08-07-2020 00:00:00 | 14.50°C | Sur-8.00 km/h - 10.00 km/h | 72.00% | 0.00 hPa
  • 07-07-2020 23:00:00 | 14.80°C | Sudoeste-5.00 km/h - 10.00 km/h | 71.00% | 0.00 hPa
  • 07-07-2020 22:00:00 | 16.40°C | Sudoeste-3.00 km/h - 10.00 km/h | 68.00% | 0.00 hPa
  • 07-07-2020 21:00:00 | 17.80°C | Calma-0.00 km/h - 6.00 km/h | 71.00% | 0.00 hPa
  • 07-07-2020 20:00:00 | 18.10°C | Noroeste-4.00 km/h - 9.00 km/h | 71.00% | 0.00 hPa
  • 07-07-2020 19:00:00 | 18.30°C | Noroeste-5.00 km/h - 12.00 km/h | 71.00% | 0.00 hPa
  • 07-07-2020 18:00:00 | 18.30°C | Noroeste-6.00 km/h - 13.00 km/h | 69.00% | 0.00 hPa
  • 07-07-2020 17:00:00 | 19.00°C | Oeste-6.00 km/h - 12.00 km/h | 65.00% | 0.00 hPa
  • 07-07-2020 16:00:00 | 18.60°C | Noroeste-6.00 km/h - 15.00 km/h | 70.00% | 0.00 hPa
  • 07-07-2020 14:00:00 | 19.40°C | Noroeste-5.00 km/h - 20.00 km/h | 64.00% | 0.00 hPa
  • 07-07-2020 14:00:00 | 19.40°C | Noroeste-5.00 km/h - 20.00 km/h | 64.00% | 0.00 hPa
  • 07-07-2020 13:00:00 | 22.80°C | Sudeste-8.00 km/h - 21.00 km/h | 42.00% | 0.00 hPa
  • 07-07-2020 12:00:00 | 21.50°C | Sur-9.00 km/h - 19.00 km/h | 47.00% | 0.00 hPa
  • 07-07-2020 11:00:00 | 20.30°C | Sur-11.00 km/h - 22.00 km/h | 55.00% | 0.00 hPa
  • 07-07-2020 10:00:00 | 18.70°C | Sudeste-12.00 km/h - 21.00 km/h | 58.00% | 0.00 hPa
    • diseño web asturias Información sobre el estado de las mareas, altura de la marejada, temperatura del agua y otros datos de Gijón en Asturias.

      Surf Gijón